sensor_id;sensor_type;location;lat;lon;timestamp;temperature;humidity
42037;DHT22;30340;52.004;5.908;2023-08-31T00:02:11;13.70;86.20
42037;DHT22;30340;52.004;5.908;2023-08-31T00:04:36;13.70;86.30
42037;DHT22;30340;52.004;5.908;2023-08-31T00:07:02;13.70;86.40
42037;DHT22;30340;52.004;5.908;2023-08-31T00:09:28;13.60;86.70
42037;DHT22;30340;52.004;5.908;2023-08-31T00:11:55;13.60;86.80
42037;DHT22;30340;52.004;5.908;2023-08-31T00:14:22;13.60;87.00
42037;DHT22;30340;52.004;5.908;2023-08-31T00:16:47;13.60;87.10
42037;DHT22;30340;52.004;5.908;2023-08-31T00:19:14;13.60;87.80
42037;DHT22;30340;52.004;5.908;2023-08-31T00:21:40;13.60;87.30
42037;DHT22;30340;52.004;5.908;2023-08-31T00:24:06;13.60;87.50
42037;DHT22;30340;52.004;5.908;2023-08-31T00:26:32;13.60;87.70
42037;DHT22;30340;52.004;5.908;2023-08-31T00:28:58;13.60;87.70
42037;DHT22;30340;52.004;5.908;2023-08-31T00:31:24;13.60;87.80
42037;DHT22;30340;52.004;5.908;2023-08-31T00:33:50;13.50;88.30
42037;DHT22;30340;52.004;5.908;2023-08-31T00:36:16;13.50;88.60
42037;DHT22;30340;52.004;5.908;2023-08-31T00:38:43;13.50;88.70
42037;DHT22;30340;52.004;5.908;2023-08-31T00:41:10;13.50;88.90
42037;DHT22;30340;52.004;5.908;2023-08-31T00:43:35;13.40;88.90
42037;DHT22;30340;52.004;5.908;2023-08-31T00:46:02;13.40;89.40
42037;DHT22;30340;52.004;5.908;2023-08-31T00:48:28;13.40;89.80
42037;DHT22;30340;52.004;5.908;2023-08-31T00:50:53;13.40;89.70
42037;DHT22;30340;52.004;5.908;2023-08-31T00:53:19;13.40;89.70
42037;DHT22;30340;52.004;5.908;2023-08-31T00:55:45;13.40;89.90
42037;DHT22;30340;52.004;5.908;2023-08-31T00:58:11;13.40;90.00
42037;DHT22;30340;52.004;5.908;2023-08-31T01:03:39;13.40;90.10
42037;DHT22;30340;52.004;5.908;2023-08-31T01:09:02;13.40;90.30
42037;DHT22;30340;52.004;5.908;2023-08-31T01:12:12;13.30;90.40
42037;DHT22;30340;52.004;5.908;2023-08-31T01:14:56;13.30;90.40
42037;DHT22;30340;52.004;5.908;2023-08-31T01:17:26;13.30;90.40
42037;DHT22;30340;52.004;5.908;2023-08-31T01:19:55;13.30;90.50
42037;DHT22;30340;52.004;5.908;2023-08-31T01:22:47;13.30;90.50
42037;DHT22;30340;52.004;5.908;2023-08-31T01:25:15;13.30;90.60
42037;DHT22;30340;52.004;5.908;2023-08-31T01:27:41;13.30;90.80
42037;DHT22;30340;52.004;5.908;2023-08-31T01:30:07;13.30;90.60
42037;DHT22;30340;52.004;5.908;2023-08-31T01:32:34;13.30;90.60
42037;DHT22;30340;52.004;5.908;2023-08-31T01:35:01;13.30;90.60
42037;DHT22;30340;52.004;5.908;2023-08-31T01:37:58;13.30;90.70
42037;DHT22;30340;52.004;5.908;2023-08-31T01:40:30;13.30;90.80
42037;DHT22;30340;52.004;5.908;2023-08-31T01:42:58;13.30;90.70
42037;DHT22;30340;52.004;5.908;2023-08-31T01:45:26;13.30;90.90
42037;DHT22;30340;52.004;5.908;2023-08-31T01:47:52;13.40;91.00
42037;DHT22;30340;52.004;5.908;2023-08-31T01:50:18;13.40;91.00
42037;DHT22;30340;52.004;5.908;2023-08-31T01:52:43;13.40;91.10
42037;DHT22;30340;52.004;5.908;2023-08-31T01:55:09;13.40;91.20
42037;DHT22;30340;52.004;5.908;2023-08-31T01:57:35;13.40;91.20
42037;DHT22;30340;52.004;5.908;2023-08-31T02:00:00;13.40;91.20
42037;DHT22;30340;52.004;5.908;2023-08-31T02:02:26;13.40;91.20
42037;DHT22;30340;52.004;5.908;2023-08-31T02:04:51;13.40;91.20
42037;DHT22;30340;52.004;5.908;2023-08-31T02:07:17;13.50;91.20
42037;DHT22;30340;52.004;5.908;2023-08-31T02:09:43;13.40;91.20
42037;DHT22;30340;52.004;5.908;2023-08-31T02:12:09;13.40;91.20
42037;DHT22;30340;52.004;5.908;2023-08-31T02:14:37;13.40;91.30
42037;DHT22;30340;52.004;5.908;2023-08-31T02:17:04;13.50;91.30
42037;DHT22;30340;52.004;5.908;2023-08-31T02:19:29;13.50;91.30
42037;DHT22;30340;52.004;5.908;2023-08-31T02:21:55;13.50;91.30
42037;DHT22;30340;52.004;5.908;2023-08-31T02:24:21;13.50;91.20
42037;DHT22;30340;52.004;5.908;2023-08-31T02:26:48;13.50;91.20
42037;DHT22;30340;52.004;5.908;2023-08-31T02:29:14;13.60;91.20
42037;DHT22;30340;52.004;5.908;2023-08-31T02:31:39;13.60;91.20
42037;DHT22;30340;52.004;5.908;2023-08-31T02:34:05;13.60;91.20
42037;DHT22;30340;52.004;5.908;2023-08-31T02:36:30;13.60;91.30
42037;DHT22;30340;52.004;5.908;2023-08-31T02:38:56;13.50;91.30
42037;DHT22;30340;52.004;5.908;2023-08-31T02:41:22;13.60;91.30
42037;DHT22;30340;52.004;5.908;2023-08-31T02:43:50;13.70;91.30
42037;DHT22;30340;52.004;5.908;2023-08-31T02:46:17;13.70;91.20
42037;DHT22;30340;52.004;5.908;2023-08-31T02:48:43;13.60;91.30
42037;DHT22;30340;52.004;5.908;2023-08-31T02:51:08;13.70;91.30
42037;DHT22;30340;52.004;5.908;2023-08-31T02:53:34;13.70;91.30
42037;DHT22;30340;52.004;5.908;2023-08-31T02:56:00;13.80;91.20
42037;DHT22;30340;52.004;5.908;2023-08-31T02:58:25;13.80;91.10
42037;DHT22;30340;52.004;5.908;2023-08-31T03:00:51;13.80;91.10
42037;DHT22;30340;52.004;5.908;2023-08-31T03:03:17;13.80;91.10
42037;DHT22;30340;52.004;5.908;2023-08-31T03:05:45;13.80;91.10
42037;DHT22;30340;52.004;5.908;2023-08-31T03:08:11;13.90;91.10
42037;DHT22;30340;52.004;5.908;2023-08-31T03:10:37;13.90;91.10
42037;DHT22;30340;52.004;5.908;2023-08-31T03:13:03;13.90;91.10
42037;DHT22;30340;52.004;5.908;2023-08-31T03:15:29;14.00;91.10
42037;DHT22;30340;52.004;5.908;2023-08-31T03:17:54;14.00;91.00
42037;DHT22;30340;52.004;5.908;2023-08-31T03:20:20;14.00;91.10
42037;DHT22;30340;52.004;5.908;2023-08-31T03:22:46;14.00;91.20
42037;DHT22;30340;52.004;5.908;2023-08-31T03:25:11;14.10;91.00
42037;DHT22;30340;52.004;5.908;2023-08-31T03:27:37;14.10;91.00
42037;DHT22;30340;52.004;5.908;2023-08-31T03:30:03;14.10;91.00
42037;DHT22;30340;52.004;5.908;2023-08-31T03:32:29;14.10;90.90
42037;DHT22;30340;52.004;5.908;2023-08-31T03:34:55;14.10;91.00
42037;DHT22;30340;52.004;5.908;2023-08-31T03:37:20;14.10;90.90
42037;DHT22;30340;52.004;5.908;2023-08-31T03:39:50;14.10;91.00
42037;DHT22;30340;52.004;5.908;2023-08-31T03:42:16;14.00;91.10
42037;DHT22;30340;52.004;5.908;2023-08-31T03:44:41;14.00;91.20
42037;DHT22;30340;52.004;5.908;2023-08-31T03:47:07;14.00;91.30
42037;DHT22;30340;52.004;5.908;2023-08-31T03:49:33;13.90;91.30
42037;DHT22;30340;52.004;5.908;2023-08-31T03:52:00;13.90;91.40
42037;DHT22;30340;52.004;5.908;2023-08-31T03:54:26;13.80;91.50
42037;DHT22;30340;52.004;5.908;2023-08-31T03:56:51;13.80;91.70
42037;DHT22;30340;52.004;5.908;2023-08-31T03:59:17;13.70;91.70
42037;DHT22;30340;52.004;5.908;2023-08-31T04:01:43;13.80;91.70
42037;DHT22;30340;52.004;5.908;2023-08-31T04:04:09;13.80;91.70
42037;DHT22;30340;52.004;5.908;2023-08-31T04:06:35;13.80;91.70
42037;DHT22;30340;52.004;5.908;2023-08-31T04:09:00;13.80;91.70
42037;DHT22;30340;52.004;5.908;2023-08-31T04:11:26;13.90;91.70
42037;DHT22;30340;52.004;5.908;2023-08-31T04:13:52;13.90;91.90
42037;DHT22;30340;52.004;5.908;2023-08-31T04:16:17;14.00;91.60
42037;DHT22;30340;52.004;5.908;2023-08-31T04:18:43;14.00;91.60
42037;DHT22;30340;52.004;5.908;2023-08-31T04:21:10;14.00;91.60
42037;DHT22;30340;52.004;5.908;2023-08-31T04:23:36;14.00;91.60
42037;DHT22;30340;52.004;5.908;2023-08-31T04:26:09;14.00;91.60
42037;DHT22;30340;52.004;5.908;2023-08-31T04:28:35;14.00;91.60
42037;DHT22;30340;52.004;5.908;2023-08-31T04:31:01;14.00;91.60
42037;DHT22;30340;52.004;5.908;2023-08-31T04:33:29;14.00;91.60
42037;DHT22;30340;52.004;5.908;2023-08-31T04:35:55;14.00;91.60
42037;DHT22;30340;52.004;5.908;2023-08-31T04:38:20;14.10;91.70
42037;DHT22;30340;52.004;5.908;2023-08-31T04:40:46;14.10;91.60
42037;DHT22;30340;52.004;5.908;2023-08-31T04:43:12;14.10;91.60
42037;DHT22;30340;52.004;5.908;2023-08-31T04:45:37;14.10;91.60
42037;DHT22;30340;52.004;5.908;2023-08-31T04:48:03;14.10;91.60
42037;DHT22;30340;52.004;5.908;2023-08-31T04:50:29;14.10;91.70
42037;DHT22;30340;52.004;5.908;2023-08-31T04:52:55;14.10;91.70
42037;DHT22;30340;52.004;5.908;2023-08-31T04:55:21;14.10;91.70
42037;DHT22;30340;52.004;5.908;2023-08-31T04:57:47;14.20;91.70
42037;DHT22;30340;52.004;5.908;2023-08-31T05:00:13;14.20;91.70
42037;DHT22;30340;52.004;5.908;2023-08-31T05:02:39;14.20;91.70
42037;DHT22;30340;52.004;5.908;2023-08-31T05:05:05;14.20;91.70
42037;DHT22;30340;52.004;5.908;2023-08-31T05:07:31;14.20;91.80
42037;DHT22;30340;52.004;5.908;2023-08-31T05:09:57;14.20;91.80
42037;DHT22;30340;52.004;5.908;2023-08-31T05:12:22;14.20;91.80
42037;DHT22;30340;52.004;5.908;2023-08-31T05:14:48;14.20;91.80
42037;DHT22;30340;52.004;5.908;2023-08-31T05:17:13;14.30;91.80
42037;DHT22;30340;52.004;5.908;2023-08-31T05:19:39;14.20;91.90
42037;DHT22;30340;52.004;5.908;2023-08-31T05:22:05;14.20;92.00
42037;DHT22;30340;52.004;5.908;2023-08-31T05:24:31;14.10;92.10
42037;DHT22;30340;52.004;5.908;2023-08-31T05:26:56;14.20;92.20
42037;DHT22;30340;52.004;5.908;2023-08-31T05:29:22;14.20;92.20
42037;DHT22;30340;52.004;5.908;2023-08-31T05:31:48;14.20;92.30
42037;DHT22;30340;52.004;5.908;2023-08-31T05:34:17;14.20;92.30
42037;DHT22;30340;52.004;5.908;2023-08-31T05:36:45;14.20;92.40
42037;DHT22;30340;52.004;5.908;2023-08-31T05:39:11;14.20;92.50
42037;DHT22;30340;52.004;5.908;2023-08-31T05:41:40;14.20;92.60
42037;DHT22;30340;52.004;5.908;2023-08-31T05:44:06;14.20;92.60
42037;DHT22;30340;52.004;5.908;2023-08-31T05:46:31;14.20;92.70
42037;DHT22;30340;52.004;5.908;2023-08-31T05:48:58;14.20;92.70
42037;DHT22;30340;52.004;5.908;2023-08-31T05:51:23;14.20;92.80
42037;DHT22;30340;52.004;5.908;2023-08-31T05:53:49;14.30;92.80
42037;DHT22;30340;52.004;5.908;2023-08-31T05:56:15;14.30;92.90
42037;DHT22;30340;52.004;5.908;2023-08-31T05:58:40;14.30;92.90
42037;DHT22;30340;52.004;5.908;2023-08-31T06:01:06;14.30;92.90
42037;DHT22;30340;52.004;5.908;2023-08-31T06:03:32;14.30;92.90
42037;DHT22;30340;52.004;5.908;2023-08-31T06:05:59;14.30;92.80
42037;DHT22;30340;52.004;5.908;2023-08-31T06:08:25;14.40;92.80
42037;DHT22;30340;52.004;5.908;2023-08-31T06:10:51;14.40;92.80
42037;DHT22;30340;52.004;5.908;2023-08-31T06:13:17;14.40;92.70
42037;DHT22;30340;52.004;5.908;2023-08-31T06:15:43;14.40;92.80
42037;DHT22;30340;52.004;5.908;2023-08-31T06:18:10;14.50;92.80
42037;DHT22;30340;52.004;5.908;2023-08-31T06:20:35;14.50;92.80
42037;DHT22;30340;52.004;5.908;2023-08-31T06:23:02;14.50;92.80
42037;DHT22;30340;52.004;5.908;2023-08-31T06:25:27;14.50;92.70
42037;DHT22;30340;52.004;5.908;2023-08-31T06:27:53;14.80;92.90
42037;DHT22;30340;52.004;5.908;2023-08-31T06:30:19;15.50;92.30
42037;DHT22;30340;52.004;5.908;2023-08-31T06:32:46;15.90;91.40
42037;DHT22;30340;52.004;5.908;2023-08-31T06:35:12;15.80;90.80
42037;DHT22;30340;52.004;5.908;2023-08-31T06:37:40;15.60;90.80
42037;DHT22;30340;52.004;5.908;2023-08-31T06:40:07;15.60;91.00
42037;DHT22;30340;52.004;5.908;2023-08-31T06:42:34;15.70;91.10
42037;DHT22;30340;52.004;5.908;2023-08-31T06:44:59;16.20;90.90
42037;DHT22;30340;52.004;5.908;2023-08-31T06:47:25;16.80;90.00
42037;DHT22;30340;52.004;5.908;2023-08-31T06:49:51;16.80;88.90
42037;DHT22;30340;52.004;5.908;2023-08-31T06:52:16;16.40;88.90
42037;DHT22;30340;52.004;5.908;2023-08-31T06:54:43;16.20;89.80
42037;DHT22;30340;52.004;5.908;2023-08-31T06:57:08;15.90;90.30
42037;DHT22;30340;52.004;5.908;2023-08-31T06:59:35;15.70;90.60
42037;DHT22;30340;52.004;5.908;2023-08-31T07:02:00;15.60;90.90
42037;DHT22;30340;52.004;5.908;2023-08-31T07:04:27;15.40;91.10
42037;DHT22;30340;52.004;5.908;2023-08-31T07:06:52;15.40;91.30
42037;DHT22;30340;52.004;5.908;2023-08-31T07:09:18;15.30;91.50
42037;DHT22;30340;52.004;5.908;2023-08-31T07:11:44;15.20;91.60
42037;DHT22;30340;52.004;5.908;2023-08-31T07:14:09;15.30;91.70
42037;DHT22;30340;52.004;5.908;2023-08-31T07:16:35;15.30;91.70
42037;DHT22;30340;52.004;5.908;2023-08-31T07:19:01;15.30;91.80
42037;DHT22;30340;52.004;5.908;2023-08-31T07:21:27;15.40;91.80
42037;DHT22;30340;52.004;5.908;2023-08-31T07:23:53;15.40;92.00
42037;DHT22;30340;52.004;5.908;2023-08-31T07:26:19;15.40;91.70
42037;DHT22;30340;52.004;5.908;2023-08-31T07:28:45;15.40;91.80
42037;DHT22;30340;52.004;5.908;2023-08-31T07:31:11;15.40;91.80
42037;DHT22;30340;52.004;5.908;2023-08-31T07:33:37;15.40;91.80
42037;DHT22;30340;52.004;5.908;2023-08-31T07:36:03;15.50;91.80
42037;DHT22;30340;52.004;5.908;2023-08-31T07:38:30;15.40;91.70
42037;DHT22;30340;52.004;5.908;2023-08-31T07:40:56;15.40;91.80
42037;DHT22;30340;52.004;5.908;2023-08-31T07:43:22;15.40;91.90
42037;DHT22;30340;52.004;5.908;2023-08-31T07:45:48;15.90;92.10
42037;DHT22;30340;52.004;5.908;2023-08-31T07:48:14;18.20;89.30
42037;DHT22;30340;52.004;5.908;2023-08-31T07:50:43;18.50;83.80
42037;DHT22;30340;52.004;5.908;2023-08-31T07:53:09;18.00;84.10
42037;DHT22;30340;52.004;5.908;2023-08-31T07:55:34;17.50;85.40
42037;DHT22;30340;52.004;5.908;2023-08-31T07:58:01;17.10;86.80
42037;DHT22;30340;52.004;5.908;2023-08-31T08:00:27;16.80;88.10
42037;DHT22;30340;52.004;5.908;2023-08-31T08:02:52;16.60;89.30
42037;DHT22;30340;52.004;5.908;2023-08-31T08:05:18;16.50;90.00
42037;DHT22;30340;52.004;5.908;2023-08-31T08:07:44;16.40;90.30
42037;DHT22;30340;52.004;5.908;2023-08-31T08:10:11;16.30;90.60
42037;DHT22;30340;52.004;5.908;2023-08-31T08:12:41;16.30;90.80
42037;DHT22;30340;52.004;5.908;2023-08-31T08:15:10;16.10;90.90
42037;DHT22;30340;52.004;5.908;2023-08-31T08:17:36;16.10;91.10
42037;DHT22;30340;52.004;5.908;2023-08-31T08:20:02;16.00;91.20
42037;DHT22;30340;52.004;5.908;2023-08-31T08:22:29;16.00;91.30
42037;DHT22;30340;52.004;5.908;2023-08-31T08:24:54;16.00;91.30
42037;DHT22;30340;52.004;5.908;2023-08-31T08:27:20;16.00;91.40
42037;DHT22;30340;52.004;5.908;2023-08-31T08:29:46;16.10;91.40
42037;DHT22;30340;52.004;5.908;2023-08-31T08:32:12;16.70;90.80
42037;DHT22;30340;52.004;5.908;2023-08-31T08:34:38;16.60;90.50
42037;DHT22;30340;52.004;5.908;2023-08-31T08:37:03;16.50;90.60
42037;DHT22;30340;52.004;5.908;2023-08-31T08:39:30;16.70;90.90
42037;DHT22;30340;52.004;5.908;2023-08-31T08:41:58;18.70;87.60
42037;DHT22;30340;52.004;5.908;2023-08-31T08:44:25;18.80;84.30
42037;DHT22;30340;52.004;5.908;2023-08-31T08:46:52;18.30;84.90
42037;DHT22;30340;52.004;5.908;2023-08-31T08:49:18;17.90;86.40
42037;DHT22;30340;52.004;5.908;2023-08-31T08:51:48;17.60;87.70
42037;DHT22;30340;52.004;5.908;2023-08-31T08:54:17;17.40;88.80
42037;DHT22;30340;52.004;5.908;2023-08-31T08:56:42;17.20;89.70
42037;DHT22;30340;52.004;5.908;2023-08-31T08:59:08;17.10;90.10
42037;DHT22;30340;52.004;5.908;2023-08-31T09:01:38;17.10;90.30
42037;DHT22;30340;52.004;5.908;2023-08-31T09:04:04;17.20;90.40
42037;DHT22;30340;52.004;5.908;2023-08-31T09:06:29;17.30;90.40
42037;DHT22;30340;52.004;5.908;2023-08-31T09:08:55;17.40;90.40
42037;DHT22;30340;52.004;5.908;2023-08-31T09:11:22;17.50;90.40
42037;DHT22;30340;52.004;5.908;2023-08-31T09:13:48;17.50;90.40
42037;DHT22;30340;52.004;5.908;2023-08-31T09:16:28;17.60;90.40
42037;DHT22;30340;52.004;5.908;2023-08-31T09:18:57;17.80;90.30
42037;DHT22;30340;52.004;5.908;2023-08-31T09:21:43;18.00;90.00
42037;DHT22;30340;52.004;5.908;2023-08-31T09:24:11;18.10;89.50
42037;DHT22;30340;52.004;5.908;2023-08-31T09:26:38;18.20;89.10
42037;DHT22;30340;52.004;5.908;2023-08-31T09:29:07;18.40;89.00
42037;DHT22;30340;52.004;5.908;2023-08-31T09:31:33;18.60;88.80
42037;DHT22;30340;52.004;5.908;2023-08-31T09:33:59;18.70;88.20
42037;DHT22;30340;52.004;5.908;2023-08-31T09:36:26;18.80;87.80
42037;DHT22;30340;52.004;5.908;2023-08-31T09:38:59;18.80;86.90
42037;DHT22;30340;52.004;5.908;2023-08-31T09:41:25;18.70;86.70
42037;DHT22;30340;52.004;5.908;2023-08-31T09:43:50;18.70;86.20
42037;DHT22;30340;52.004;5.908;2023-08-31T09:46:16;18.60;85.80
42037;DHT22;30340;52.004;5.908;2023-08-31T09:48:43;18.60;85.80
42037;DHT22;30340;52.004;5.908;2023-08-31T09:51:14;18.70;85.60
42037;DHT22;30340;52.004;5.908;2023-08-31T09:53:42;18.70;84.50
42037;DHT22;30340;52.004;5.908;2023-08-31T09:56:12;18.80;84.30
42037;DHT22;30340;52.004;5.908;2023-08-31T09:58:38;19.00;84.10
42037;DHT22;30340;52.004;5.908;2023-08-31T10:01:05;19.20;83.30
42037;DHT22;30340;52.004;5.908;2023-08-31T10:03:31;19.30;82.50
42037;DHT22;30340;52.004;5.908;2023-08-31T10:05:57;19.30;81.70
42037;DHT22;30340;52.004;5.908;2023-08-31T10:08:25;19.30;81.30
42037;DHT22;30340;52.004;5.908;2023-08-31T10:10:54;19.20;81.10
42037;DHT22;30340;52.004;5.908;2023-08-31T10:13:19;19.10;81.00
42037;DHT22;30340;52.004;5.908;2023-08-31T10:15:48;19.00;81.40
42037;DHT22;30340;52.004;5.908;2023-08-31T10:18:15;18.90;81.90
42037;DHT22;30340;52.004;5.908;2023-08-31T10:20:43;18.90;82.20
42037;DHT22;30340;52.004;5.908;2023-08-31T10:23:09;18.80;82.50
42037;DHT22;30340;52.004;5.908;2023-08-31T10:28:22;18.70;82.50
42037;DHT22;30340;52.004;5.908;2023-08-31T10:31:07;18.70;82.80
42037;DHT22;30340;52.004;5.908;2023-08-31T10:36:13;18.70;83.00
42037;DHT22;30340;52.004;5.908;2023-08-31T10:38:39;18.80;83.00
42037;DHT22;30340;52.004;5.908;2023-08-31T10:46:33;19.10;83.00
42037;DHT22;30340;52.004;5.908;2023-08-31T10:49:14;19.30;82.60
42037;DHT22;30340;52.004;5.908;2023-08-31T10:51:45;19.50;81.90
42037;DHT22;30340;52.004;5.908;2023-08-31T10:54:13;19.60;81.30
42037;DHT22;30340;52.004;5.908;2023-08-31T10:59:45;19.90;77.80
42037;DHT22;30340;52.004;5.908;2023-08-31T11:02:26;20.00;75.80
42037;DHT22;30340;52.004;5.908;2023-08-31T11:05:14;20.00;73.40
42037;DHT22;30340;52.004;5.908;2023-08-31T11:07:41;20.10;73.10
42037;DHT22;30340;52.004;5.908;2023-08-31T11:10:20;20.10;72.80
42037;DHT22;30340;52.004;5.908;2023-08-31T11:12:50;20.20;71.10
42037;DHT22;30340;52.004;5.908;2023-08-31T11:15:17;20.20;70.60
42037;DHT22;30340;52.004;5.908;2023-08-31T11:17:44;20.30;71.00
42037;DHT22;30340;52.004;5.908;2023-08-31T11:20:17;20.50;71.10
42037;DHT22;30340;52.004;5.908;2023-08-31T11:22:45;20.60;70.00
42037;DHT22;30340;52.004;5.908;2023-08-31T11:25:13;20.80;70.00
42037;DHT22;30340;52.004;5.908;2023-08-31T11:27:57;20.90;69.60
42037;DHT22;30340;52.004;5.908;2023-08-31T11:30:28;21.00;68.90
42037;DHT22;30340;52.004;5.908;2023-08-31T11:32:55;21.10;68.00
42037;DHT22;30340;52.004;5.908;2023-08-31T11:35:22;21.10;67.40
42037;DHT22;30340;52.004;5.908;2023-08-31T11:37:54;21.20;66.90
42037;DHT22;30340;52.004;5.908;2023-08-31T11:40:20;21.20;66.00
42037;DHT22;30340;52.004;5.908;2023-08-31T11:42:48;21.20;65.00
42037;DHT22;30340;52.004;5.908;2023-08-31T11:45:15;21.30;65.00
42037;DHT22;30340;52.004;5.908;2023-08-31T11:47:41;21.30;63.80
42037;DHT22;30340;52.004;5.908;2023-08-31T11:50:08;21.40;62.60
42037;DHT22;30340;52.004;5.908;2023-08-31T11:52:34;21.40;61.80
42037;DHT22;30340;52.004;5.908;2023-08-31T11:55:00;21.30;61.40
42037;DHT22;30340;52.004;5.908;2023-08-31T11:57:26;21.40;61.70
42037;DHT22;30340;52.004;5.908;2023-08-31T11:59:55;21.40;62.10
42037;DHT22;30340;52.004;5.908;2023-08-31T12:02:21;21.40;62.20
42037;DHT22;30340;52.004;5.908;2023-08-31T12:04:47;21.40;61.70
42037;DHT22;30340;52.004;5.908;2023-08-31T12:07:19;21.50;60.80
42037;DHT22;30340;52.004;5.908;2023-08-31T12:09:45;21.50;60.10
42037;DHT22;30340;52.004;5.908;2023-08-31T12:12:13;21.50;59.20
42037;DHT22;30340;52.004;5.908;2023-08-31T12:14:40;21.30;58.30
42037;DHT22;30340;52.004;5.908;2023-08-31T12:17:07;21.10;58.60
42037;DHT22;30340;52.004;5.908;2023-08-31T12:19:37;21.10;59.40
42037;DHT22;30340;52.004;5.908;2023-08-31T12:22:03;21.10;59.50
42037;DHT22;30340;52.004;5.908;2023-08-31T12:24:29;21.20;58.80
42037;DHT22;30340;52.004;5.908;2023-08-31T12:27:02;21.20;58.10
42037;DHT22;30340;52.004;5.908;2023-08-31T12:29:27;21.30;57.30
42037;DHT22;30340;52.004;5.908;2023-08-31T12:31:53;21.40;57.20
42037;DHT22;30340;52.004;5.908;2023-08-31T12:34:19;21.50;56.50
42037;DHT22;30340;52.004;5.908;2023-08-31T12:36:44;21.60;55.90
42037;DHT22;30340;52.004;5.908;2023-08-31T12:39:10;21.70;56.20
42037;DHT22;30340;52.004;5.908;2023-08-31T12:41:36;21.80;55.60
42037;DHT22;30340;52.004;5.908;2023-08-31T12:44:03;21.90;55.60
42037;DHT22;30340;52.004;5.908;2023-08-31T12:46:31;22.10;56.00
42037;DHT22;30340;52.004;5.908;2023-08-31T12:48:57;22.20;55.10
42037;DHT22;30340;52.004;5.908;2023-08-31T12:51:22;22.30;54.40
42037;DHT22;30340;52.004;5.908;2023-08-31T12:53:48;22.20;54.20
42037;DHT22;30340;52.004;5.908;2023-08-31T12:56:14;22.10;54.10
42037;DHT22;30340;52.004;5.908;2023-08-31T12:58:49;22.10;53.60
42037;DHT22;30340;52.004;5.908;2023-08-31T13:01:15;22.10;53.20
42037;DHT22;30340;52.004;5.908;2023-08-31T13:03:41;22.10;52.50
42037;DHT22;30340;52.004;5.908;2023-08-31T13:06:06;22.20;53.40
42037;DHT22;30340;52.004;5.908;2023-08-31T13:08:32;22.30;53.60
42037;DHT22;30340;52.004;5.908;2023-08-31T13:10:58;22.40;53.60
42037;DHT22;30340;52.004;5.908;2023-08-31T13:13:23;22.50;53.20
42037;DHT22;30340;52.004;5.908;2023-08-31T13:15:49;22.70;53.20
42037;DHT22;30340;52.004;5.908;2023-08-31T13:18:15;22.70;53.00
42037;DHT22;30340;52.004;5.908;2023-08-31T13:20:51;22.90;53.10
42037;DHT22;30340;52.004;5.908;2023-08-31T13:23:17;23.00;52.80
42037;DHT22;30340;52.004;5.908;2023-08-31T13:25:43;23.20;52.70
42037;DHT22;30340;52.004;5.908;2023-08-31T13:28:09;23.30;52.50
42037;DHT22;30340;52.004;5.908;2023-08-31T13:30:35;23.30;52.20
42037;DHT22;30340;52.004;5.908;2023-08-31T13:33:00;23.40;51.50
42037;DHT22;30340;52.004;5.908;2023-08-31T13:35:27;23.30;51.40
42037;DHT22;30340;52.004;5.908;2023-08-31T13:37:52;23.50;51.90
42037;DHT22;30340;52.004;5.908;2023-08-31T13:40:19;23.60;51.40
42037;DHT22;30340;52.004;5.908;2023-08-31T13:42:57;23.70;50.90
42037;DHT22;30340;52.004;5.908;2023-08-31T13:45:24;23.60;50.30
42037;DHT22;30340;52.004;5.908;2023-08-31T13:47:50;23.50;50.10
42037;DHT22;30340;52.004;5.908;2023-08-31T13:50:16;23.50;50.10
42037;DHT22;30340;52.004;5.908;2023-08-31T13:52:42;23.40;49.00
42037;DHT22;30340;52.004;5.908;2023-08-31T13:55:10;23.20;49.30
42037;DHT22;30340;52.004;5.908;2023-08-31T13:57:35;23.00;50.00
42037;DHT22;30340;52.004;5.908;2023-08-31T14:00:02;22.80;49.80
42037;DHT22;30340;52.004;5.908;2023-08-31T14:02:29;22.70;50.30
42037;DHT22;30340;52.004;5.908;2023-08-31T14:04:56;22.70;50.70
42037;DHT22;30340;52.004;5.908;2023-08-31T14:07:22;22.70;51.00
42037;DHT22;30340;52.004;5.908;2023-08-31T14:09:48;23.00;50.80
42037;DHT22;30340;52.004;5.908;2023-08-31T14:12:13;23.10;50.60
42037;DHT22;30340;52.004;5.908;2023-08-31T14:14:39;23.10;50.30
42037;DHT22;30340;52.004;5.908;2023-08-31T14:17:06;23.10;50.50
42037;DHT22;30340;52.004;5.908;2023-08-31T14:19:33;23.20;50.50
42037;DHT22;30340;52.004;5.908;2023-08-31T14:22:01;23.20;50.70
42037;DHT22;30340;52.004;5.908;2023-08-31T14:24:29;23.50;50.60
42037;DHT22;30340;52.004;5.908;2023-08-31T14:26:54;23.60;50.80
42037;DHT22;30340;52.004;5.908;2023-08-31T14:29:20;23.60;50.60
42037;DHT22;30340;52.004;5.908;2023-08-31T14:31:46;23.80;51.10
42037;DHT22;30340;52.004;5.908;2023-08-31T14:34:12;23.90;50.70
42037;DHT22;30340;52.004;5.908;2023-08-31T14:36:37;23.90;50.20
42037;DHT22;30340;52.004;5.908;2023-08-31T14:39:03;23.90;50.70
42037;DHT22;30340;52.004;5.908;2023-08-31T14:41:30;23.90;50.60
42037;DHT22;30340;52.004;5.908;2023-08-31T14:43:56;24.00;50.60
42037;DHT22;30340;52.004;5.908;2023-08-31T14:46:21;24.00;50.10
42037;DHT22;30340;52.004;5.908;2023-08-31T14:48:47;23.90;50.10
42037;DHT22;30340;52.004;5.908;2023-08-31T14:51:15;23.90;50.30
42037;DHT22;30340;52.004;5.908;2023-08-31T14:53:40;23.90;50.50
42037;DHT22;30340;52.004;5.908;2023-08-31T14:56:06;23.90;50.80
42037;DHT22;30340;52.004;5.908;2023-08-31T14:58:32;23.80;51.20
42037;DHT22;30340;52.004;5.908;2023-08-31T15:00:57;23.60;51.10
42037;DHT22;30340;52.004;5.908;2023-08-31T15:03:23;23.50;51.00
42037;DHT22;30340;52.004;5.908;2023-08-31T15:05:49;23.30;51.20
42037;DHT22;30340;52.004;5.908;2023-08-31T15:08:15;23.10;51.70
42037;DHT22;30340;52.004;5.908;2023-08-31T15:10:41;22.90;52.00
42037;DHT22;30340;52.004;5.908;2023-08-31T15:13:07;22.70;52.10
42037;DHT22;30340;52.004;5.908;2023-08-31T15:15:33;22.60;52.30
42037;DHT22;30340;52.004;5.908;2023-08-31T15:18:00;22.50;52.50
42037;DHT22;30340;52.004;5.908;2023-08-31T15:20:25;22.40;52.80
42037;DHT22;30340;52.004;5.908;2023-08-31T15:22:53;22.40;53.10
42037;DHT22;30340;52.004;5.908;2023-08-31T15:25:19;22.30;53.20
42037;DHT22;30340;52.004;5.908;2023-08-31T15:27:44;22.30;53.30
42037;DHT22;30340;52.004;5.908;2023-08-31T15:30:11;22.20;53.60
42037;DHT22;30340;52.004;5.908;2023-08-31T15:32:37;22.10;53.80
42037;DHT22;30340;52.004;5.908;2023-08-31T15:35:03;22.00;54.00
42037;DHT22;30340;52.004;5.908;2023-08-31T15:37:30;21.90;54.10
42037;DHT22;30340;52.004;5.908;2023-08-31T15:39:56;21.80;53.90
42037;DHT22;30340;52.004;5.908;2023-08-31T15:42:24;21.80;54.30
42037;DHT22;30340;52.004;5.908;2023-08-31T15:44:50;21.80;54.50
42037;DHT22;30340;52.004;5.908;2023-08-31T15:47:18;21.80;54.70
42037;DHT22;30340;52.004;5.908;2023-08-31T15:49:43;21.80;55.20